Histon, United Kingdom
Current Conditions -  °F | °C
As of 7:50 PM on Wednesday 26 Nov 2014 (Local Time) from EGSC Reporting Station
Haze Haze  
Wind Chill: 46°   Ceiling: 400
Heat Index: 46°   Visibility: 2.5mi
Dew Point: 46°   Wind: 1mph
Humidity: 100%   Direction: 140°SE
Pressure: 29.8"   Gusts: NA
Location:  52.25°N, 0.11°E
Report Text: EGSC 261950Z 14001KT 4000 BR BKN004 BKN009 08/08 Q1009
Loading
Personal Weather Stations






























Interactive Weather Map New forecast layout! Learn more

10-Day Weather Forecast

Advertisements
Track Severe Weather on mobile